Time,TemperatureF,DewpointF,PressureIn,WindDirection,WindDirectionDegrees,WindSpeedMPH,WindSpeedGustMPH,Humidity,HourlyPrecipIn,Conditions,Clouds,dailyrainin,SoftwareType,DateUTC
2015-05-27 00:11:00,66.0,59.0,30.16,SW,226,0.0,4.0,78,-99.99,,,-99.99,,2015-05-27 04:11:00,
2015-05-27 00:31:00,66.0,59.0,30.16,South,182,0.0,3.0,78,-99.99,,,-99.99,,2015-05-27 04:31:00,
2015-05-27 00:41:00,65.0,58.0,30.15,South,182,0.0,0.0,78,-99.99,,,-99.99,,2015-05-27 04:41:00,
2015-05-27 00:52:00,65.0,58.0,30.15,ESE,116,0.0,3.0,79,-99.99,,,-99.99,,2015-05-27 04:52:00,
2015-05-27 01:11:00,65.0,59.0,30.15,SE,145,0.0,4.0,80,-99.99,,,-99.99,,2015-05-27 05:11:00,
2015-05-27 01:31:00,64.0,58.0,30.15,SE,134,0.0,2.0,80,-99.99,,,-99.99,,2015-05-27 05:31:00,
2015-05-27 01:52:00,64.0,58.0,30.15,SSE,168,0.0,4.0,81,-99.99,,,-99.99,,2015-05-27 05:52:00,
2015-05-27 02:02:00,64.0,58.0,30.15,SSE,168,0.0,4.0,81,-99.99,,,-99.99,,2015-05-27 06:02:00,
2015-05-27 02:11:00,63.0,57.0,30.15,ESE,122,0.0,4.0,82,-99.99,,,-99.99,,2015-05-27 06:11:00,
2015-05-27 02:21:00,63.0,58.0,30.15,SW,221,1.0,5.0,83,-99.99,,,-99.99,,2015-05-27 06:21:00,
2015-05-27 02:42:00,63.0,58.0,30.14,South,170,0.0,4.0,84,-99.99,,,-99.99,,2015-05-27 06:42:00,
2015-05-27 02:51:00,63.0,58.0,30.14,SSE,153,0.0,2.0,84,-99.99,,,-99.99,,2015-05-27 06:51:00,
2015-05-27 03:02:00,63.0,58.0,30.14,SSE,153,0.0,2.0,84,-99.99,,,-99.99,,2015-05-27 07:02:00,
2015-05-27 03:11:00,63.0,58.0,30.14,South,169,0.0,6.0,85,-99.99,,,-99.99,,2015-05-27 07:11:00,
2015-05-27 03:21:00,63.0,58.0,30.14,SSE,166,0.0,2.0,85,-99.99,,,-99.99,,2015-05-27 07:21:00,
2015-05-27 03:31:00,63.0,58.0,30.14,SSE,166,0.0,2.0,85,-99.99,,,-99.99,,2015-05-27 07:31:00,
2015-05-27 03:41:00,63.0,58.0,30.14,SSE,150,0.0,5.0,85,-99.99,,,-99.99,,2015-05-27 07:41:00,
2015-05-27 03:51:00,63.0,58.0,30.14,WNW,303,0.0,3.0,85,-99.99,,,-99.99,,2015-05-27 07:51:00,
2015-05-27 04:11:00,63.0,59.0,30.14,South,170,0.0,5.0,86,-99.99,,,-99.99,,2015-05-27 08:11:00,
2015-05-27 04:21:00,63.0,59.0,30.14,SSE,164,0.0,3.0,86,-99.99,,,-99.99,,2015-05-27 08:21:00,
2015-05-27 04:52:00,63.0,59.0,30.14,SSE,147,0.0,3.0,86,-99.99,,,-99.99,,2015-05-27 08:52:00,
2015-05-27 05:02:00,63.0,59.0,30.14,SSE,147,0.0,3.0,86,-99.99,,,-99.99,,2015-05-27 09:02:00,
2015-05-27 05:11:00,63.0,59.0,30.14,East,94,0.0,3.0,86,-99.99,,,-99.99,,2015-05-27 09:11:00,
2015-05-27 05:21:00,63.0,59.0,30.14,SE,143,0.0,3.0,87,-99.99,,,-99.99,,2015-05-27 09:21:00,
2015-05-27 05:31:00,63.0,59.0,30.14,SE,143,0.0,3.0,87,-99.99,,,-99.99,,2015-05-27 09:31:00,
2015-05-27 05:52:00,63.0,59.0,30.15,East,85,0.0,1.0,88,-99.99,,,-99.99,,2015-05-27 09:52:00,
2015-05-27 06:11:00,63.0,59.0,30.15,East,85,0.0,4.0,88,-99.99,,,-99.99,,2015-05-27 10:11:00,
2015-05-27 06:21:00,63.0,59.0,30.16,East,101,0.0,3.0,88,-99.99,,,-99.99,,2015-05-27 10:21:00,
2015-05-27 06:41:00,63.0,59.0,30.16,ESE,112,0.0,3.0,87,-99.99,,,-99.99,,2015-05-27 10:41:00,
2015-05-27 06:52:00,64.0,60.0,30.15,SSW,193,0.0,6.0,87,-99.99,,,-99.99,,2015-05-27 10:52:00,
2015-05-27 07:02:00,64.0,60.0,30.15,SSW,193,0.0,6.0,87,-99.99,,,-99.99,,2015-05-27 11:02:00,
2015-05-27 07:11:00,64.0,60.0,30.15,SE,126,0.0,3.0,87,-99.99,,,-99.99,,2015-05-27 11:11:00,
2015-05-27 07:31:00,64.0,60.0,30.15,SW,220,2.0,5.0,87,-99.99,,,-99.99,,2015-05-27 11:31:00,
2015-05-27 07:52:00,65.0,61.0,30.16,SW,217,0.0,7.0,87,-99.99,,,-99.99,,2015-05-27 11:52:00,
2015-05-27 08:02:00,65.0,61.0,30.16,SW,217,0.0,7.0,87,-99.99,,,-99.99,,2015-05-27 12:02:00,
2015-05-27 08:11:00,65.0,60.0,30.16,SSW,211,5.0,14.0,85,-99.99,,,-99.99,,2015-05-27 12:11:00,
2015-05-27 08:31:00,66.0,61.0,30.15,SSW,198,2.0,7.0,84,-99.99,,,-99.99,,2015-05-27 12:31:00,
2015-05-27 08:42:00,67.0,62.0,30.15,South,191,3.0,9.0,83,-99.99,,,-99.99,,2015-05-27 12:42:00,
2015-05-27 08:52:00,67.0,62.0,30.15,SSW,209,2.0,8.0,83,-99.99,,,-99.99,,2015-05-27 12:52:00,
2015-05-27 09:12:00,68.0,63.0,30.15,SSW,197,1.0,9.0,83,-99.99,,,-99.99,,2015-05-27 13:12:00,
2015-05-27 09:21:00,69.0,63.0,30.15,SSW,199,4.0,12.0,81,-99.99,,,-99.99,,2015-05-27 13:21:00,
2015-05-27 09:42:00,69.0,63.0,30.15,SW,216,1.0,8.0,80,-99.99,,,-99.99,,2015-05-27 13:42:00,
2015-05-27 09:51:00,70.0,63.0,30.14,SW,228,4.0,8.0,79,-99.99,,,-99.99,,2015-05-27 13:51:00,
2015-05-27 10:11:00,71.0,64.0,30.14,SSW,209,1.0,6.0,78,-99.99,,,-99.99,,2015-05-27 14:11:00,
2015-05-27 10:31:00,72.0,64.0,30.14,SSW,201,3.0,9.0,76,-99.99,,,-99.99,,2015-05-27 14:31:00,
2015-05-27 10:42:00,73.0,65.0,30.14,SSE,162,0.0,9.0,76,-99.99,,,-99.99,,2015-05-27 14:42:00,
2015-05-27 10:52:00,74.0,65.0,30.14,ENE,58,2.0,7.0,73,-99.99,,,-99.99,,2015-05-27 14:52:00,
2015-05-27 11:02:00,74.0,65.0,30.14,ENE,58,2.0,7.0,73,-99.99,,,-99.99,,2015-05-27 15:02:00,
2015-05-27 11:11:00,75.0,66.0,30.14,ESE,114,1.0,8.0,73,-99.99,,,-99.99,,2015-05-27 15:11:00,
2015-05-27 11:21:00,75.0,66.0,30.14,ESE,114,1.0,8.0,73,-99.99,,,-99.99,,2015-05-27 15:21:00,
2015-05-27 11:31:00,75.0,66.0,30.14,SSW,207,1.0,8.0,73,-99.99,,,-99.99,,2015-05-27 15:31:00,
2015-05-27 11:42:00,76.0,66.0,30.14,East,91,0.0,7.0,72,-99.99,,,-99.99,,2015-05-27 15:42:00,
2015-05-27 12:03:00,76.0,66.0,30.14,SSW,209,4.0,16.0,72,-99.99,,,-99.99,,2015-05-27 16:03:00,
2015-05-27 12:22:00,77.0,67.0,30.14,SSW,194,2.0,10.0,71,-99.99,,,-99.99,,2015-05-27 16:22:00,
2015-05-27 12:31:00,78.0,67.0,30.14,SSW,203,4.0,11.0,68,-99.99,,,-99.99,,2015-05-27 16:31:00,
2015-05-27 13:03:00,79.0,66.0,30.13,SSE,162,5.0,11.0,65,-99.99,,,-99.99,,2015-05-27 17:03:00,
2015-05-27 13:12:00,80.0,68.0,30.12,SSW,198,2.0,11.0,66,-99.99,,,-99.99,,2015-05-27 17:12:00,
2015-05-27 13:22:00,80.0,68.0,30.12,SSW,198,2.0,11.0,66,-99.99,,,-99.99,,2015-05-27 17:22:00,
2015-05-27 13:32:00,80.0,67.0,30.12,SSW,197,6.0,17.0,64,-99.99,,,-99.99,,2015-05-27 17:32:00,
2015-05-27 13:52:00,80.0,67.0,30.11,SSW,199,1.0,12.0,65,-99.99,,,-99.99,,2015-05-27 17:52:00,
2015-05-27 14:03:00,80.0,67.0,30.11,SSW,199,1.0,12.0,65,-99.99,,,-99.99,,2015-05-27 18:03:00,
2015-05-27 14:12:00,80.0,67.0,30.10,SW,221,2.0,10.0,64,-99.99,,,-99.99,,2015-05-27 18:12:00,
2015-05-27 14:22:00,80.0,67.0,30.10,SW,221,2.0,10.0,64,-99.99,,,-99.99,,2015-05-27 18:22:00,
2015-05-27 14:32:00,81.0,68.0,30.10,SW,236,4.0,17.0,64,-99.99,,,-99.99,,2015-05-27 18:32:00,
2015-05-27 15:02:00,80.0,68.0,30.09,SSW,199,9.0,20.0,66,-99.99,,,-99.99,,2015-05-27 19:02:00,
2015-05-27 15:32:00,80.0,68.0,30.09,South,178,2.0,14.0,67,-99.99,,,-99.99,,2015-05-27 19:32:00,
2015-05-27 16:02:00,80.0,68.0,30.08,North,1,4.0,17.0,66,-99.99,,,-99.99,,2015-05-27 20:02:00,
2015-05-27 16:21:00,80.0,68.0,30.07,South,180,2.0,20.0,66,-99.99,,,-99.99,,2015-05-27 20:21:00,
2015-05-27 16:31:00,80.0,67.0,30.07,SSW,194,2.0,9.0,65,-99.99,,,-99.99,,2015-05-27 20:31:00,
2015-05-27 16:52:00,79.0,67.0,30.07,ESE,123,2.0,14.0,67,-99.99,,,-99.99,,2015-05-27 20:52:00,
2015-05-27 17:02:00,78.0,67.0,30.07,SSW,200,5.0,19.0,69,-99.99,,,-99.99,,2015-05-27 21:02:00,
2015-05-27 17:21:00,78.0,67.0,30.07,SSW,208,4.0,12.0,68,-99.99,,,-99.99,,2015-05-27 21:21:00,
2015-05-27 17:31:00,77.0,66.0,30.08,South,170,2.0,16.0,70,-99.99,,,-99.99,,2015-05-27 21:31:00,
2015-05-27 18:01:00,76.0,66.0,30.07,ESE,112,4.0,16.0,72,-99.99,,,-99.99,,2015-05-27 22:01:00,
2015-05-27 18:21:00,75.0,66.0,30.08,SSW,201,2.0,19.0,74,-99.99,,,-99.99,,2015-05-27 22:21:00,